Time;durP1;ratioP1;P1;durP2;ratioP2;P2;SDS_P1;SDS_P2;PMS_P1;PMS_P2;Temp;Humidity;BMP_temperature;BMP_pressure;BME280_temperature;BME280_humidity;BME280_pressure;Samples;Min_cycle;Max_cycle;Signal;HPM_P1;HPM_P2
2021/10/20 00:01:38;;;;;;;18.77;11.93;;;;;;;;;;5016006;28;20597;-46
2021/10/20 00:04:04;;;;;;;19.27;11.70;;;;;;;;;;5027792;28;20226;-46
2021/10/20 00:06:30;;;;;;;17.90;11.45;;;;;;;;;;5026489;28;20812;-46
2021/10/20 00:08:57;;;;;;;16.38;10.68;;;;;;;;;;5025151;28;20214;-46
2021/10/20 00:11:23;;;;;;;17.48;11.48;;;;;;;;;;5026815;28;20255;-46
2021/10/20 00:13:49;;;;;;;19.17;11.25;;;;;;;;;;5014653;28;20579;-46
2021/10/20 00:16:16;;;;;;;15.57;10.82;;;;;;;;;;5019174;28;20188;-46
2021/10/20 00:18:47;;;;;;;15.20;10.57;;;;;;;;;;5034507;28;20500;-46
2021/10/20 00:21:13;;;;;;;16.65;10.55;;;;;;;;;;5028551;28;20181;-46
2021/10/20 00:23:39;;;;;;;15.02;10.40;;;;;;;;;;5027355;28;20575;-46
2021/10/20 00:26:05;;;;;;;15.35;10.60;;;;;;;;;;5014655;28;20189;-46
2021/10/20 00:28:31;;;;;;;15.32;10.32;;;;;;;;;;5025541;28;20179;-46
2021/10/20 00:30:57;;;;;;;15.27;10.60;;;;;;;;;;5023460;28;20268;-46
2021/10/20 00:33:23;;;;;;;15.40;10.45;;;;;;;;;;5022071;28;20201;-46
2021/10/20 00:35:49;;;;;;;14.77;9.75;;;;;;;;;;5033667;28;20322;-46
2021/10/20 00:38:15;;;;;;;16.45;10.25;;;;;;;;;;5034517;28;20551;-46
2021/10/20 00:40:41;;;;;;;13.43;9.15;;;;;;;;;;5029849;28;20188;-46
2021/10/20 00:43:07;;;;;;;12.73;8.43;;;;;;;;;;5014143;28;20291;-46
2021/10/20 00:45:35;;;;;;;13.63;9.20;;;;;;;;;;5014123;28;20433;-46
2021/10/20 00:48:01;;;;;;;14.75;9.48;;;;;;;;;;5033368;28;20176;-46
2021/10/20 00:50:28;;;;;;;13.93;8.95;;;;;;;;;;5036291;28;20427;-46
2021/10/20 00:52:54;;;;;;;14.23;8.88;;;;;;;;;;5034863;28;20229;-46
2021/10/20 00:55:20;;;;;;;13.45;9.02;;;;;;;;;;5023717;28;20251;-46
2021/10/20 00:57:47;;;;;;;11.90;8.52;;;;;;;;;;5035145;28;20325;-46
2021/10/20 01:00:14;;;;;;;13.63;8.60;;;;;;;;;;5024848;28;20180;-46
2021/10/20 01:02:40;;;;;;;12.30;8.27;;;;;;;;;;5033215;28;20207;-46
2021/10/20 01:05:08;;;;;;;13.55;8.55;;;;;;;;;;5031166;28;20191;-46
2021/10/20 01:07:34;;;;;;;12.05;8.13;;;;;;;;;;5018039;28;20172;-46
2021/10/20 01:10:00;;;;;;;11.93;7.85;;;;;;;;;;5017970;28;20183;-46
2021/10/20 01:12:27;;;;;;;12.23;7.78;;;;;;;;;;5021270;28;20184;-46
2021/10/20 01:14:53;;;;;;;11.88;8.07;;;;;;;;;;5022483;28;20176;-46
2021/10/20 01:17:20;;;;;;;11.43;7.80;;;;;;;;;;5024216;28;20185;-46
2021/10/20 01:19:46;;;;;;;11.75;8.20;;;;;;;;;;5031058;28;20246;-46
2021/10/20 01:22:12;;;;;;;11.45;7.82;;;;;;;;;;5025799;28;20200;-46
2021/10/20 01:24:39;;;;;;;11.43;7.78;;;;;;;;;;5018604;28;20173;-46
2021/10/20 01:27:05;;;;;;;10.18;7.32;;;;;;;;;;5037257;28;20172;-46
2021/10/20 01:29:31;;;;;;;11.13;7.38;;;;;;;;;;5020073;28;20208;-46
2021/10/20 01:31:58;;;;;;;10.55;7.47;;;;;;;;;;5018648;28;20207;-46
2021/10/20 01:34:25;;;;;;;10.30;7.43;;;;;;;;;;5017022;28;20165;-46
2021/10/20 01:36:52;;;;;;;9.70;7.30;;;;;;;;;;5019786;28;20505;-46
2021/10/20 01:39:18;;;;;;;10.65;7.07;;;;;;;;;;5019913;28;20255;-46
2021/10/20 01:41:45;;;;;;;10.25;7.40;;;;;;;;;;5026594;28;20204;-46
2021/10/20 01:44:11;;;;;;;9.98;6.63;;;;;;;;;;5016656;28;20201;-46
2021/10/20 01:46:37;;;;;;;9.82;7.07;;;;;;;;;;5025244;28;20283;-46
2021/10/20 01:49:03;;;;;;;9.60;7.15;;;;;;;;;;5036206;28;20183;-46
2021/10/20 01:51:29;;;;;;;10.85;6.78;;;;;;;;;;5029976;28;20205;-46
2021/10/20 01:53:55;;;;;;;8.18;6.20;;;;;;;;;;5033056;28;20619;-46
2021/10/20 01:56:21;;;;;;;8.77;6.22;;;;;;;;;;5035817;28;20184;-46
2021/10/20 01:58:47;;;;;;;9.95;6.55;;;;;;;;;;5036379;28;20244;-46
2021/10/20 02:01:14;;;;;;;9.52;6.88;;;;;;;;;;5030768;28;20242;-46
2021/10/20 02:03:40;;;;;;;9.00;6.40;;;;;;;;;;5034979;28;20239;-46
2021/10/20 02:06:18;;;;;;;10.45;6.88;;;;;;;;;;5036432;28;20440;-46
2021/10/20 02:08:44;;;;;;;8.70;6.05;;;;;;;;;;5031278;28;20687;-46
2021/10/20 02:11:11;;;;;;;9.15;5.93;;;;;;;;;;5020895;28;20510;-46
2021/10/20 02:13:37;;;;;;;9.73;5.82;;;;;;;;;;5017161;28;20611;-46
2021/10/20 02:16:03;;;;;;;9.85;6.07;;;;;;;;;;5016627;28;20188;-46
2021/10/20 02:18:29;;;;;;;8.43;5.97;;;;;;;;;;5016689;28;20172;-46
2021/10/20 02:20:55;;;;;;;8.07;5.80;;;;;;;;;;5019808;28;20191;-46
2021/10/20 02:23:22;;;;;;;7.30;5.28;;;;;;;;;;5031292;28;20200;-45
2021/10/20 02:25:48;;;;;;;7.90;5.72;;;;;;;;;;5017313;28;20186;-46
2021/10/20 02:28:14;;;;;;;7.82;5.55;;;;;;;;;;5027208;28;20173;-46
2021/10/20 02:30:41;;;;;;;8.07;5.70;;;;;;;;;;5020076;28;20176;-46
2021/10/20 02:33:07;;;;;;;7.93;5.65;;;;;;;;;;5030084;28;20271;-46
2021/10/20 02:35:33;;;;;;;7.68;5.25;;;;;;;;;;5035318;28;20254;-46
2021/10/20 02:37:59;;;;;;;6.63;5.28;;;;;;;;;;5035025;28;20180;-46
2021/10/20 02:40:25;;;;;;;7.22;5.05;;;;;;;;;;5025430;28;20564;-46
2021/10/20 02:42:51;;;;;;;10.55;5.60;;;;;;;;;;5023050;28;20216;-46
2021/10/20 02:45:17;;;;;;;9.65;5.68;;;;;;;;;;5027394;28;20176;-46
2021/10/20 02:47:44;;;;;;;6.20;4.72;;;;;;;;;;5031110;28;20559;-46
2021/10/20 02:50:10;;;;;;;7.18;5.05;;;;;;;;;;5034907;28;20190;-46
2021/10/20 02:52:36;;;;;;;6.38;4.97;;;;;;;;;;5026941;28;20188;-46
2021/10/20 02:55:03;;;;;;;6.45;5.05;;;;;;;;;;5035021;28;20327;-46
2021/10/20 02:57:30;;;;;;;6.50;4.80;;;;;;;;;;5034981;28;20214;-46
2021/10/20 02:59:57;;;;;;;6.75;5.03;;;;;;;;;;5034971;28;20211;-46
2021/10/20 03:02:23;;;;;;;6.22;4.70;;;;;;;;;;5023088;28;20223;-46
2021/10/20 03:04:49;;;;;;;6.60;4.68;;;;;;;;;;5029402;28;20172;-46
2021/10/20 03:07:15;;;;;;;6.63;4.65;;;;;;;;;;5030174;28;20250;-46
2021/10/20 03:09:41;;;;;;;6.22;4.60;;;;;;;;;;5035341;28;20199;-46
2021/10/20 03:12:07;;;;;;;6.18;4.78;;;;;;;;;;5021130;28;20190;-46
2021/10/20 03:14:33;;;;;;;5.30;4.28;;;;;;;;;;5034128;28;20167;-46
2021/10/20 03:16:59;;;;;;;7.05;4.57;;;;;;;;;;5030420;28;20168;-46
2021/10/20 03:19:25;;;;;;;5.82;4.35;;;;;;;;;;5015550;28;20750;-46
2021/10/20 03:21:51;;;;;;;6.60;4.70;;;;;;;;;;5023032;28;20183;-46
2021/10/20 03:24:18;;;;;;;5.35;4.35;;;;;;;;;;5022879;28;20203;-46
2021/10/20 03:26:44;;;;;;;5.28;4.28;;;;;;;;;;5015134;28;20184;-46
2021/10/20 03:29:10;;;;;;;5.85;4.78;;;;;;;;;;5033839;28;20186;-46
2021/10/20 03:31:36;;;;;;;5.93;4.47;;;;;;;;;;5028948;28;20781;-46
2021/10/20 03:34:02;;;;;;;5.85;4.35;;;;;;;;;;5033781;28;20188;-46
2021/10/20 03:36:28;;;;;;;4.80;3.92;;;;;;;;;;5032742;28;20183;-46
2021/10/20 03:38:54;;;;;;;5.40;4.53;;;;;;;;;;5035023;28;20171;-46
2021/10/20 03:41:21;;;;;;;5.82;4.22;;;;;;;;;;5026379;28;20275;-46
2021/10/20 03:43:47;;;;;;;6.05;4.25;;;;;;;;;;5032386;28;20239;-46
2021/10/20 03:46:13;;;;;;;5.50;4.20;;;;;;;;;;5033950;28;20594;-46
2021/10/20 03:48:39;;;;;;;4.28;3.85;;;;;;;;;;5034566;28;20258;-46
2021/10/20 03:51:05;;;;;;;6.18;4.70;;;;;;;;;;5027426;28;20185;-46
2021/10/20 03:53:31;;;;;;;5.32;3.83;;;;;;;;;;5029960;28;20551;-46
2021/10/20 03:55:57;;;;;;;7.05;3.70;;;;;;;;;;5015649;28;20180;-46
2021/10/20 03:58:24;;;;;;;7.72;4.28;;;;;;;;;;5028281;28;20270;-46
2021/10/20 04:00:52;;;;;;;5.50;3.70;;;;;;;;;;5025902;28;20208;-46
2021/10/20 04:03:18;;;;;;;4.00;3.55;;;;;;;;;;5027528;28;20204;-46
2021/10/20 04:05:44;;;;;;;4.82;3.80;;;;;;;;;;5033625;28;20178;-46
2021/10/20 04:08:10;;;;;;;5.07;3.55;;;;;;;;;;5022166;28;20554;-45
2021/10/20 04:10:35;;;;;;;5.13;3.95;;;;;;;;;;5025988;28;20615;-46
2021/10/20 04:13:02;;;;;;;4.60;3.40;;;;;;;;;;5027240;28;20238;-46
2021/10/20 04:15:28;;;;;;;7.57;4.00;;;;;;;;;;5032606;28;20494;-46
2021/10/20 04:17:54;;;;;;;8.35;4.32;;;;;;;;;;5034778;28;20179;-46
2021/10/20 04:20:20;;;;;;;9.50;3.75;;;;;;;;;;5029086;28;20180;-46
2021/10/20 04:22:50;;;;;;;9.48;4.10;;;;;;;;;;5022409;28;20240;-46
2021/10/20 04:25:16;;;;;;;8.27;4.15;;;;;;;;;;5018598;28;20196;-46
2021/10/20 04:27:43;;;;;;;6.88;3.78;;;;;;;;;;5035271;28;20190;-46
2021/10/20 04:30:10;;;;;;;7.25;3.70;;;;;;;;;;5031006;28;20180;-47
2021/10/20 04:32:36;;;;;;;7.13;3.70;;;;;;;;;;5025776;28;20361;-46
2021/10/20 04:35:02;;;;;;;8.50;4.18;;;;;;;;;;5018095;28;20256;-46
2021/10/20 04:37:28;;;;;;;6.75;3.83;;;;;;;;;;5018863;28;20181;-46
2021/10/20 04:39:58;;;;;;;7.60;3.70;;;;;;;;;;5019192;28;20173;-46
2021/10/20 04:42:25;;;;;;;8.60;3.83;;;;;;;;;;5036338;28;20687;-46
2021/10/20 04:44:51;;;;;;;7.80;3.33;;;;;;;;;;5026391;28;20219;-46
2021/10/20 04:47:16;;;;;;;7.57;4.07;;;;;;;;;;5030824;28;20230;-46
2021/10/20 04:49:43;;;;;;;8.57;3.38;;;;;;;;;;5037842;28;20551;-46
2021/10/20 04:52:10;;;;;;;6.57;3.90;;;;;;;;;;5033544;28;20183;-46
2021/10/20 04:54:35;;;;;;;8.02;3.58;;;;;;;;;;5032742;28;20333;-46
2021/10/20 04:57:01;;;;;;;5.15;3.42;;;;;;;;;;5030419;28;20874;-46
2021/10/20 04:59:31;;;;;;;7.75;3.13;;;;;;;;;;5037060;28;20176;-46
2021/10/20 05:01:57;;;;;;;5.75;3.38;;;;;;;;;;5020693;28;20184;-46
2021/10/20 05:04:23;;;;;;;6.47;3.60;;;;;;;;;;5029939;28;20266;-46
2021/10/20 05:06:49;;;;;;;8.10;3.80;;;;;;;;;;5021638;28;20548;-46
2021/10/20 05:09:15;;;;;;;5.80;3.03;;;;;;;;;;5029898;28;20195;-46
2021/10/20 05:11:41;;;;;;;7.32;3.50;;;;;;;;;;5018368;28;20200;-46
2021/10/20 05:14:07;;;;;;;6.13;3.35;;;;;;;;;;5035856;28;20258;-46
2021/10/20 05:16:33;;;;;;;7.68;3.58;;;;;;;;;;5024253;28;20283;-46
2021/10/20 05:18:59;;;;;;;6.63;3.03;;;;;;;;;;5029102;28;20203;-46
2021/10/20 05:21:25;;;;;;;7.07;3.70;;;;;;;;;;5029460;28;20202;-46
2021/10/20 05:23:51;;;;;;;6.75;3.50;;;;;;;;;;5036721;28;20598;-46
2021/10/20 05:26:18;;;;;;;4.78;3.22;;;;;;;;;;5031626;28;20445;-46
2021/10/20 05:28:44;;;;;;;7.13;3.17;;;;;;;;;;5017595;28;20179;-46
2021/10/20 05:31:10;;;;;;;5.20;3.20;;;;;;;;;;5022794;28;20180;-46
2021/10/20 05:33:36;;;;;;;5.60;3.15;;;;;;;;;;5024118;28;20192;-46
2021/10/20 05:36:02;;;;;;;6.13;3.10;;;;;;;;;;5032235;28;20212;-46
2021/10/20 05:38:29;;;;;;;4.90;3.28;;;;;;;;;;5018235;28;20184;-46
2021/10/20 05:40:55;;;;;;;5.07;3.30;;;;;;;;;;5029238;28;20180;-46
2021/10/20 05:43:21;;;;;;;7.60;3.20;;;;;;;;;;5019622;28;20215;-46
2021/10/20 05:45:47;;;;;;;11.00;3.33;;;;;;;;;;5024072;28;20184;-46
2021/10/20 05:48:15;;;;;;;4.25;3.03;;;;;;;;;;5028338;28;20186;-46
2021/10/20 05:50:41;;;;;;;6.03;3.75;;;;;;;;;;5027601;28;20184;-46
2021/10/20 05:53:07;;;;;;;6.75;3.53;;;;;;;;;;5023244;28;20427;-46
2021/10/20 05:55:33;;;;;;;4.78;3.15;;;;;;;;;;5027771;28;20202;-46
2021/10/20 05:57:59;;;;;;;8.23;3.58;;;;;;;;;;5028775;28;20462;-46
2021/10/20 06:00:25;;;;;;;4.63;3.38;;;;;;;;;;5031476;28;20204;-46
2021/10/20 06:02:51;;;;;;;5.38;2.83;;;;;;;;;;5026459;28;20212;-46
2021/10/20 06:05:17;;;;;;;6.35;3.65;;;;;;;;;;5034162;28;20233;-46
2021/10/20 06:07:45;;;;;;;9.13;3.72;;;;;;;;;;5035263;28;20290;-46
2021/10/20 06:10:12;;;;;;;8.35;3.30;;;;;;;;;;5027014;28;20176;-46
2021/10/20 06:12:38;;;;;;;5.65;3.50;;;;;;;;;;5028404;28;20176;-46
2021/10/20 06:15:06;;;;;;;5.68;2.90;;;;;;;;;;5033549;28;20204;-46
2021/10/20 06:17:32;;;;;;;5.40;3.58;;;;;;;;;;5023381;28;20180;-46
2021/10/20 06:19:58;;;;;;;5.72;3.33;;;;;;;;;;5034594;28;20175;-46
2021/10/20 06:22:25;;;;;;;5.38;2.83;;;;;;;;;;5031458;28;20468;-46
2021/10/20 06:24:51;;;;;;;5.82;3.25;;;;;;;;;;5019595;28;20181;-46
2021/10/20 06:27:16;;;;;;;6.50;3.30;;;;;;;;;;5015509;28;20183;-46
2021/10/20 06:29:42;;;;;;;4.70;2.45;;;;;;;;;;5025386;28;20184;-46
2021/10/20 06:32:08;;;;;;;4.97;3.10;;;;;;;;;;5016036;28;20263;-46
2021/10/20 06:34:34;;;;;;;4.05;2.90;;;;;;;;;;5015859;28;20164;-46
2021/10/20 06:37:01;;;;;;;4.60;2.88;;;;;;;;;;5025025;28;20241;-46
2021/10/20 06:39:27;;;;;;;4.90;2.72;;;;;;;;;;5030819;28;20203;-46
2021/10/20 06:41:53;;;;;;;7.47;2.80;;;;;;;;;;5034662;28;20505;-46
2021/10/20 06:44:20;;;;;;;3.92;2.83;;;;;;;;;;5035108;28;20203;-46
2021/10/20 06:46:46;;;;;;;5.32;2.50;;;;;;;;;;5027086;28;20540;-46
2021/10/20 06:49:12;;;;;;;5.57;2.90;;;;;;;;;;5033888;28;20207;-46
2021/10/20 06:51:38;;;;;;;4.03;2.60;;;;;;;;;;5031611;28;20265;-46
2021/10/20 06:54:04;;;;;;;6.25;2.60;;;;;;;;;;5019000;28;20212;-46
2021/10/20 06:56:30;;;;;;;4.60;2.72;;;;;;;;;;5022992;28;20257;-46
2021/10/20 06:58:56;;;;;;;4.50;2.72;;;;;;;;;;5020747;28;20199;-46
2021/10/20 07:01:22;;;;;;;5.63;2.78;;;;;;;;;;5018443;28;20195;-46
2021/10/20 07:03:48;;;;;;;5.60;3.20;;;;;;;;;;5034086;28;20609;-46
2021/10/20 07:06:14;;;;;;;3.95;2.92;;;;;;;;;;5021073;28;20185;-46
2021/10/20 07:08:40;;;;;;;4.07;2.67;;;;;;;;;;5015769;28;20191;-46
2021/10/20 07:11:06;;;;;;;2.88;2.45;;;;;;;;;;5018579;28;20184;-46
2021/10/20 07:13:32;;;;;;;4.47;2.72;;;;;;;;;;5025399;28;20810;-46
2021/10/20 07:15:58;;;;;;;4.15;2.45;;;;;;;;;;5034424;28;20202;-46
2021/10/20 07:18:27;;;;;;;4.88;2.55;;;;;;;;;;5035015;28;20543;-46
2021/10/20 07:20:53;;;;;;;4.20;2.38;;;;;;;;;;5015426;28;20264;-46
2021/10/20 07:23:19;;;;;;;3.20;2.20;;;;;;;;;;5014454;28;20208;-46
2021/10/20 07:25:45;;;;;;;4.70;2.63;;;;;;;;;;5015117;28;20488;-46
2021/10/20 07:28:11;;;;;;;4.85;2.70;;;;;;;;;;5015386;28;20172;-46
2021/10/20 07:30:37;;;;;;;3.33;2.40;;;;;;;;;;5033212;28;20251;-46
2021/10/20 07:33:04;;;;;;;3.92;2.42;;;;;;;;;;5034613;28;20176;-46
2021/10/20 07:35:30;;;;;;;4.70;2.58;;;;;;;;;;5034972;28;20194;-46
2021/10/20 07:37:56;;;;;;;3.15;2.50;;;;;;;;;;5035022;28;20176;-46
2021/10/20 07:40:22;;;;;;;4.15;2.35;;;;;;;;;;5018783;28;20176;-46
2021/10/20 07:42:48;;;;;;;2.85;2.15;;;;;;;;;;5014903;28;20788;-46
2021/10/20 07:45:15;;;;;;;3.22;2.35;;;;;;;;;;5014860;28;20184;-46
2021/10/20 07:47:42;;;;;;;3.28;2.22;;;;;;;;;;5031702;28;20198;-46
2021/10/20 07:50:08;;;;;;;4.10;2.40;;;;;;;;;;5034364;28;20650;-46
2021/10/20 07:52:34;;;;;;;4.53;2.17;;;;;;;;;;5034663;28;20477;-46
2021/10/20 07:55:00;;;;;;;2.75;2.15;;;;;;;;;;5022838;28;20994;-46
2021/10/20 07:57:28;;;;;;;3.20;2.28;;;;;;;;;;5014835;28;20467;-46
2021/10/20 07:59:54;;;;;;;2.42;1.90;;;;;;;;;;5026435;28;20179;-46
2021/10/20 08:02:21;;;;;;;2.90;2.22;;;;;;;;;;5034410;28;20290;-46
2021/10/20 08:04:47;;;;;;;3.25;2.30;;;;;;;;;;5033886;28;20442;-46
2021/10/20 08:07:13;;;;;;;2.63;2.30;;;;;;;;;;5034384;28;20571;-46
2021/10/20 08:09:39;;;;;;;2.67;2.40;;;;;;;;;;5024782;28;20188;-46
2021/10/20 08:12:05;;;;;;;3.78;2.53;;;;;;;;;;5014874;28;20172;-46
2021/10/20 08:14:33;;;;;;;3.28;2.15;;;;;;;;;;5014370;28;20169;-46
2021/10/20 08:16:59;;;;;;;3.08;2.40;;;;;;;;;;5014756;28;20833;-46
2021/10/20 08:19:25;;;;;;;2.20;2.00;;;;;;;;;;5021789;28;20187;-46
2021/10/20 08:21:51;;;;;;;2.85;2.17;;;;;;;;;;5034333;28;20195;-46
2021/10/20 08:24:17;;;;;;;3.90;2.10;;;;;;;;;;5033864;28;20226;-46
2021/10/20 08:26:43;;;;;;;3.05;1.98;;;;;;;;;;5034355;28;20164;-46
2021/10/20 08:29:10;;;;;;;2.33;1.90;;;;;;;;;;5029460;28;20640;-46
2021/10/20 08:31:37;;;;;;;2.10;1.75;;;;;;;;;;5014669;28;20169;-46
2021/10/20 08:34:03;;;;;;;2.88;2.30;;;;;;;;;;5014108;28;20176;-46
2021/10/20 08:36:29;;;;;;;2.72;1.80;;;;;;;;;;5014310;28;20226;-46
2021/10/20 08:38:55;;;;;;;3.40;2.08;;;;;;;;;;5016833;28;20575;-46
2021/10/20 08:41:21;;;;;;;2.10;1.67;;;;;;;;;;5033237;28;20184;-46
2021/10/20 08:43:47;;;;;;;2.40;1.90;;;;;;;;;;5031464;28;20211;-46
2021/10/20 08:46:14;;;;;;;2.22;1.90;;;;;;;;;;5018468;28;20189;-46
2021/10/20 08:48:41;;;;;;;2.20;1.70;;;;;;;;;;5023499;28;20164;-46
2021/10/20 08:51:07;;;;;;;2.83;1.98;;;;;;;;;;5017613;28;20315;-46
2021/10/20 08:53:33;;;;;;;2.95;1.90;;;;;;;;;;5013869;28;20208;-46
2021/10/20 08:56:00;;;;;;;1.95;1.75;;;;;;;;;;5032225;28;20302;-46
2021/10/20 08:58:26;;;;;;;2.30;2.10;;;;;;;;;;5033538;28;20194;-46
2021/10/20 09:00:52;;;;;;;2.50;1.80;;;;;;;;;;5016356;28;20203;-46
2021/10/20 09:03:18;;;;;;;1.85;1.70;;;;;;;;;;5033588;28;20200;-46
2021/10/20 09:05:44;;;;;;;2.00;1.80;;;;;;;;;;5024250;28;20551;-46
2021/10/20 09:08:10;;;;;;;3.15;1.77;;;;;;;;;;5033688;28;20184;-46
2021/10/20 09:10:36;;;;;;;2.10;1.60;;;;;;;;;;5026586;28;20184;-46
2021/10/20 09:13:03;;;;;;;1.85;1.65;;;;;;;;;;5036927;28;20187;-46
2021/10/20 09:15:33;;;;;;;2.15;1.85;;;;;;;;;;5017609;28;20196;-46
2021/10/20 09:17:59;;;;;;;2.20;1.70;;;;;;;;;;5017594;28;20191;-46
2021/10/20 09:20:29;;;;;;;1.73;1.63;;;;;;;;;;5031402;28;20279;-46
2021/10/20 09:22:59;;;;;;;2.53;2.13;;;;;;;;;;5035224;28;20198;-46
2021/10/20 09:25:36;;;;;;;2.10;1.70;;;;;;;;;;5037174;28;20437;-46
2021/10/20 09:28:03;;;;;;;2.20;2.00;;;;;;;;;;5027434;28;20207;-46
2021/10/20 09:30:30;;;;;;;1.60;1.50;;;;;;;;;;5032106;28;20176;-46
2021/10/20 09:32:58;;;;;;;2.53;1.95;;;;;;;;;;5034367;28;20297;-46
2021/10/20 09:35:24;;;;;;;1.98;1.77;;;;;;;;;;5017521;28;20195;-46
2021/10/20 09:37:57;;;;;;;2.03;1.77;;;;;;;;;;5037250;28;20182;-46
2021/10/20 09:40:23;;;;;;;1.60;1.50;;;;;;;;;;5036195;28;20263;-46
2021/10/20 09:42:50;;;;;;;1.90;1.70;;;;;;;;;;5031398;28;20291;-46
2021/10/20 09:45:17;;;;;;;1.60;1.45;;;;;;;;;;5036061;28;20172;-46
2021/10/20 09:47:43;;;;;;;1.70;1.60;;;;;;;;;;5028863;28;20472;-46
2021/10/20 09:50:10;;;;;;;2.15;1.58;;;;;;;;;;5036331;28;20218;-46
2021/10/20 09:52:50;;;;;;;2.25;1.50;;;;;;;;;;5032545;28;20184;-46
2021/10/20 09:55:24;;;;;;;1.90;1.70;;;;;;;;;;5029620;28;20510;-46
2021/10/20 09:57:52;;;;;;;1.83;1.60;;;;;;;;;;5024774;28;20183;-46
2021/10/20 10:00:18;;;;;;;1.85;1.63;;;;;;;;;;5026814;28;20267;-46
2021/10/20 10:02:44;;;;;;;1.73;1.63;;;;;;;;;;5034253;28;20299;-46
2021/10/20 10:05:10;;;;;;;1.58;1.40;;;;;;;;;;5036593;28;20168;-46
2021/10/20 10:07:36;;;;;;;1.58;1.42;;;;;;;;;;5036355;28;20239;-46
2021/10/20 10:10:03;;;;;;;2.15;1.65;;;;;;;;;;5027836;28;20176;-46
2021/10/20 10:12:31;;;;;;;1.63;1.52;;;;;;;;;;5035737;28;20278;-46
2021/10/20 10:15:03;;;;;;;2.67;1.65;;;;;;;;;;5035869;28;20191;-46
2021/10/20 10:17:30;;;;;;;1.60;1.50;;;;;;;;;;5036280;28;20517;-46
2021/10/20 10:20:05;;;;;;;1.92;1.45;;;;;;;;;;5022416;28;20501;-46
2021/10/20 10:22:31;;;;;;;2.08;1.50;;;;;;;;;;5031088;28;20172;-46
2021/10/20 10:25:04;;;;;;;1.77;1.65;;;;;;;;;;5034658;28;20190;-46
2021/10/20 10:27:30;;;;;;;1.50;1.40;;;;;;;;;;5036233;28;20179;-46
2021/10/20 10:30:16;;;;;;;3.10;1.60;;;;;;;;;;5027555;28;20260;-46
2021/10/20 10:32:42;;;;;;;2.50;1.45;;;;;;;;;;5016777;28;20250;-46
2021/10/20 10:35:08;;;;;;;1.30;1.20;;;;;;;;;;5034986;28;20184;-46
2021/10/20 10:37:36;;;;;;;1.75;1.48;;;;;;;;;;5020551;28;20268;-46
2021/10/20 10:40:18;;;;;;;1.92;1.50;;;;;;;;;;5025384;28;20444;-46
2021/10/20 10:42:45;;;;;;;2.55;1.58;;;;;;;;;;5030081;28;20195;-46
2021/10/20 10:45:12;;;;;;;1.65;1.48;;;;;;;;;;5035922;28;20270;-46
2021/10/20 10:47:58;;;;;;;2.42;1.83;;;;;;;;;;5028507;28;20579;-46
2021/10/20 10:50:42;;;;;;;1.40;1.30;;;;;;;;;;5032613;28;20188;-46
2021/10/20 10:53:09;;;;;;;1.35;1.25;;;;;;;;;;5028068;28;20198;-46
2021/10/20 10:55:36;;;;;;;1.65;1.40;;;;;;;;;;5031679;28;20267;-46
2021/10/20 10:58:18;;;;;;;1.40;1.30;;;;;;;;;;5016489;28;20221;-46
2021/10/20 11:00:44;;;;;;;1.58;1.48;;;;;;;;;;5030171;28;20192;-46
2021/10/20 11:03:10;;;;;;;2.17;1.60;;;;;;;;;;5034500;28;20200;-46
2021/10/20 11:05:40;;;;;;;2.03;1.58;;;;;;;;;;5034558;28;20258;-46
2021/10/20 11:08:10;;;;;;;1.95;1.35;;;;;;;;;;5032442;28;20180;-46
2021/10/20 11:10:37;;;;;;;1.40;1.30;;;;;;;;;;5028537;28;20666;-46
2021/10/20 11:13:03;;;;;;;2.05;1.50;;;;;;;;;;5034969;28;20250;-46
2021/10/20 11:15:30;;;;;;;1.23;1.13;;;;;;;;;;5035433;28;20196;-46
2021/10/20 11:17:56;;;;;;;1.40;1.30;;;;;;;;;;5027514;28;20188;-46
2021/10/20 11:20:23;;;;;;;2.13;1.20;;;;;;;;;;5026380;28;20176;-46
2021/10/20 11:22:53;;;;;;;2.35;1.23;;;;;;;;;;5016795;28;20291;-46
2021/10/20 11:25:20;;;;;;;2.35;1.42;;;;;;;;;;5022359;28;20198;-46
2021/10/20 11:27:47;;;;;;;1.60;1.50;;;;;;;;;;5023481;28;20230;-46
2021/10/20 11:30:13;;;;;;;1.63;1.50;;;;;;;;;;5035386;28;20214;-46
2021/10/20 11:32:42;;;;;;;1.40;1.30;;;;;;;;;;5034780;28;20259;-46
2021/10/20 11:35:13;;;;;;;1.58;1.48;;;;;;;;;;5034723;28;20258;-46
2021/10/20 11:37:39;;;;;;;1.40;1.30;;;;;;;;;;5031158;28;20176;-46
2021/10/20 11:40:05;;;;;;;1.55;1.45;;;;;;;;;;5034370;28;20430;-46
2021/10/20 11:42:32;;;;;;;2.67;1.60;;;;;;;;;;5030122;28;20191;-46
2021/10/20 11:45:04;;;;;;;1.33;1.23;;;;;;;;;;5034546;28;20168;-46
2021/10/20 11:47:31;;;;;;;1.33;1.23;;;;;;;;;;5023601;28;20283;-46
2021/10/20 11:49:57;;;;;;;1.38;1.25;;;;;;;;;;5034072;28;20439;-46
2021/10/20 11:52:24;;;;;;;1.40;1.30;;;;;;;;;;5026526;28;20754;-46
2021/10/20 11:54:53;;;;;;;1.60;1.30;;;;;;;;;;5024211;28;20283;-46
2021/10/20 11:57:20;;;;;;;1.42;1.33;;;;;;;;;;5027188;28;20191;-46
2021/10/20 11:59:48;;;;;;;2.03;1.30;;;;;;;;;;5033706;28;20206;-46
2021/10/20 12:02:14;;;;;;;1.10;1.00;;;;;;;;;;5021701;28;20251;-46
2021/10/20 12:04:42;;;;;;;1.08;0.98;;;;;;;;;;5032780;28;20254;-46
2021/10/20 12:07:10;;;;;;;1.30;1.20;;;;;;;;;;5030345;28;20494;-46
2021/10/20 12:09:38;;;;;;;1.42;1.33;;;;;;;;;;5020250;28;20172;-46
2021/10/20 12:12:05;;;;;;;1.35;1.25;;;;;;;;;;5013868;28;20279;-46
2021/10/20 12:14:35;;;;;;;1.40;1.30;;;;;;;;;;5014497;28;20230;-46
2021/10/20 12:17:02;;;;;;;1.50;1.40;;;;;;;;;;5014576;28;20200;-46
2021/10/20 12:19:32;;;;;;;2.00;1.60;;;;;;;;;;5014732;28;20169;-46
2021/10/20 12:22:03;;;;;;;1.40;1.30;;;;;;;;;;5015020;28;20181;-46
2021/10/20 12:24:32;;;;;;;1.35;1.25;;;;;;;;;;5018265;28;20885;-46
2021/10/20 12:26:58;;;;;;;1.52;1.42;;;;;;;;;;5019740;28;20183;-46
2021/10/20 12:29:26;;;;;;;2.25;1.17;;;;;;;;;;5034567;28;20164;-46
2021/10/20 12:31:56;;;;;;;1.80;1.42;;;;;;;;;;5034048;28;20294;-46
2021/10/20 12:34:22;;;;;;;1.20;1.10;;;;;;;;;;5034353;28;20287;-46
2021/10/20 12:36:48;;;;;;;1.42;1.33;;;;;;;;;;5025154;28;20214;-46
2021/10/20 12:39:17;;;;;;;1.30;1.20;;;;;;;;;;5034487;28;20475;-46
2021/10/20 12:41:44;;;;;;;1.60;1.50;;;;;;;;;;5030485;28;20215;-46
2021/10/20 12:44:11;;;;;;;1.30;1.20;;;;;;;;;;5023020;28;20207;-46
2021/10/20 12:46:43;;;;;;;1.23;1.13;;;;;;;;;;5032695;28;20199;-46
2021/10/20 12:49:10;;;;;;;1.40;1.30;;;;;;;;;;5024690;28;20172;-46
2021/10/20 12:51:38;;;;;;;1.00;1.00;;;;;;;;;;5020597;28;20211;-46
2021/10/20 12:54:05;;;;;;;1.63;1.17;;;;;;;;;;5023515;28;20191;-46
2021/10/20 12:56:32;;;;;;;1.30;1.20;;;;;;;;;;5033066;28;20240;-46
2021/10/20 12:59:14;;;;;;;1.27;1.17;;;;;;;;;;5028232;28;20267;-46
2021/10/20 13:01:40;;;;;;;1.60;1.50;;;;;;;;;;5027437;28;20188;-46
2021/10/20 13:04:09;;;;;;;1.48;1.38;;;;;;;;;;5037310;28;20315;-46
2021/10/20 13:06:36;;;;;;;1.50;1.40;;;;;;;;;;5021572;28;20176;-46
2021/10/20 13:09:03;;;;;;;1.30;1.20;;;;;;;;;;5036985;28;20156;-46
2021/10/20 13:11:29;;;;;;;1.42;1.33;;;;;;;;;;5028990;28;20515;-46
2021/10/20 13:13:55;;;;;;;1.85;1.40;;;;;;;;;;5017775;28;20263;-46
2021/10/20 13:16:21;;;;;;;2.00;1.40;;;;;;;;;;5020663;28;20251;-46
2021/10/20 13:18:47;;;;;;;2.00;1.60;;;;;;;;;;5017755;28;20192;-46
2021/10/20 13:21:15;;;;;;;1.70;1.50;;;;;;;;;;5030257;28;20610;-46
2021/10/20 13:23:41;;;;;;;3.17;1.52;;;;;;;;;;5032339;28;20282;-46
2021/10/20 13:26:07;;;;;;;2.45;1.40;;;;;;;;;;5019569;28;20536;-46
2021/10/20 13:28:34;;;;;;;1.88;1.40;;;;;;;;;;5033518;28;20972;-46
2021/10/20 13:31:00;;;;;;;1.60;1.50;;;;;;;;;;5037469;28;20168;-46
2021/10/20 13:33:26;;;;;;;2.28;1.42;;;;;;;;;;5025358;28;20183;-46
2021/10/20 13:35:52;;;;;;;1.70;1.48;;;;;;;;;;5034694;28;20214;-46
2021/10/20 13:38:21;;;;;;;4.03;1.63;;;;;;;;;;5020350;28;20177;-46
2021/10/20 13:40:47;;;;;;;2.20;1.45;;;;;;;;;;5018168;28;20261;-46
2021/10/20 13:43:14;;;;;;;3.28;1.38;;;;;;;;;;5035934;28;20211;-46
2021/10/20 13:45:40;;;;;;;3.53;1.52;;;;;;;;;;5036925;28;20172;-46
2021/10/20 13:48:06;;;;;;;3.38;1.52;;;;;;;;;;5034617;28;20454;-46
2021/10/20 13:50:32;;;;;;;2.20;1.58;;;;;;;;;;5017149;28;20261;-46
2021/10/20 13:52:58;;;;;;;2.63;1.50;;;;;;;;;;5016495;28;20230;-46
2021/10/20 13:55:28;;;;;;;2.15;1.58;;;;;;;;;;5035063;28;20617;-46
2021/10/20 13:57:54;;;;;;;1.38;1.17;;;;;;;;;;5028320;28;20180;-46
2021/10/20 14:00:20;;;;;;;2.80;1.92;;;;;;;;;;5032772;28;20192;-46
2021/10/20 14:02:46;;;;;;;3.08;1.52;;;;;;;;;;5029447;28;20214;-46
2021/10/20 14:05:13;;;;;;;2.20;1.63;;;;;;;;;;5024336;28;20239;-46
2021/10/20 14:07:39;;;;;;;1.73;1.63;;;;;;;;;;5023763;28;20187;-46
2021/10/20 14:10:06;;;;;;;1.80;1.58;;;;;;;;;;5022500;28;20183;-46
2021/10/20 14:12:32;;;;;;;2.42;1.67;;;;;;;;;;5017108;28;20492;-46
2021/10/20 14:14:58;;;;;;;2.58;1.67;;;;;;;;;;5020086;28;20194;-46
2021/10/20 14:17:25;;;;;;;4.63;1.90;;;;;;;;;;5022625;28;20262;-46
2021/10/20 14:19:51;;;;;;;2.08;1.63;;;;;;;;;;5021965;28;20182;-45
2021/10/20 14:22:18;;;;;;;3.55;1.90;;;;;;;;;;5029110;28;20216;-45
2021/10/20 14:24:45;;;;;;;2.40;1.67;;;;;;;;;;5032878;28;20335;-45
2021/10/20 14:27:11;;;;;;;5.03;1.73;;;;;;;;;;5016431;28;20173;-45
2021/10/20 14:29:38;;;;;;;3.05;1.70;;;;;;;;;;5033434;28;20219;-46
2021/10/20 14:32:05;;;;;;;3.00;1.60;;;;;;;;;;5026032;28;20287;-46
2021/10/20 14:34:31;;;;;;;4.25;1.95;;;;;;;;;;5019457;28;20571;-46
2021/10/20 14:36:57;;;;;;;2.35;1.67;;;;;;;;;;5035390;28;20595;-46
2021/10/20 14:39:23;;;;;;;3.17;1.60;;;;;;;;;;5036168;28;20202;-46